sensor_id;sensor_type;location;lat;lon;timestamp;pressure;altitude;pressure_sealevel;temperature;humidity
11314;BME280;5712;48.858;9.206;2023-03-01T00:00:38;98952.41;;;-2.64;97.96
11314;BME280;5712;48.858;9.206;2023-03-01T00:03:04;98953.28;;;-2.63;98.47
11314;BME280;5712;48.858;9.206;2023-03-01T00:05:31;98958.44;;;-2.60;98.32
11314;BME280;5712;48.858;9.206;2023-03-01T00:07:57;98950.66;;;-2.57;98.29
11314;BME280;5712;48.858;9.206;2023-03-01T00:10:25;98957.56;;;-2.58;98.34
11314;BME280;5712;48.858;9.206;2023-03-01T00:12:52;98948.09;;;-2.63;98.16
11314;BME280;5712;48.858;9.206;2023-03-01T00:15:18;98955.03;;;-2.68;98.10
11314;BME280;5712;48.858;9.206;2023-03-01T00:17:45;98952.44;;;-2.67;98.42
11314;BME280;5712;48.858;9.206;2023-03-01T00:20:11;98945.53;;;-2.71;99.08
11314;BME280;5712;48.858;9.206;2023-03-01T00:22:38;98953.31;;;-2.72;98.99
11314;BME280;5712;48.858;9.206;2023-03-01T00:25:05;98951.63;;;-2.76;99.64
11314;BME280;5712;48.858;9.206;2023-03-01T00:27:32;98954.19;;;-2.73;99.43
11314;BME280;5712;48.858;9.206;2023-03-01T00:29:59;98955.03;;;-2.71;99.76
11314;BME280;5712;48.858;9.206;2023-03-01T00:32:25;98955.03;;;-2.68;99.45
11314;BME280;5712;48.858;9.206;2023-03-01T00:34:52;98955.84;;;-2.56;99.45
11314;BME280;5712;48.858;9.206;2023-03-01T00:39:57;98960.03;;;-2.35;98.55
11314;BME280;5712;48.858;9.206;2023-03-01T00:42:24;98952.25;;;-2.34;97.96
11314;BME280;5712;48.858;9.206;2023-03-01T00:44:52;98947.97;;;-2.38;97.95
11314;BME280;5712;48.858;9.206;2023-03-01T00:47:18;98948.78;;;-2.33;97.17
11314;BME280;5712;48.858;9.206;2023-03-01T00:49:44;98943.63;;;-2.33;96.70
11314;BME280;5712;48.858;9.206;2023-03-01T00:52:11;98942.81;;;-2.44;96.53
11314;BME280;5712;48.858;9.206;2023-03-01T00:54:37;98948.06;;;-2.60;96.91
11314;BME280;5712;48.858;9.206;2023-03-01T00:57:04;98953.28;;;-2.66;98.02
11314;BME280;5712;48.858;9.206;2023-03-01T00:59:30;98941.25;;;-2.70;98.33
11314;BME280;5712;48.858;9.206;2023-03-01T01:01:58;98950.72;;;-2.71;99.24
11314;BME280;5712;48.858;9.206;2023-03-01T01:04:25;98949.81;;;-2.65;99.11
11314;BME280;5712;48.858;9.206;2023-03-01T01:06:51;98942.06;;;-2.65;99.19
11314;BME280;5712;48.858;9.206;2023-03-01T01:09:18;98949.81;;;-2.62;99.09
11314;BME280;5712;48.858;9.206;2023-03-01T01:11:45;98940.25;;;-2.48;99.23
11314;BME280;5712;48.858;9.206;2023-03-01T01:14:11;98948.84;;;-2.36;99.38
11314;BME280;5712;48.858;9.206;2023-03-01T01:16:38;98949.59;;;-2.19;98.58
11314;BME280;5712;48.858;9.206;2023-03-01T01:19:06;98947.94;;;-2.30;98.10
11314;BME280;5712;48.858;9.206;2023-03-01T01:21:33;98937.38;;;-2.00;98.12
11314;BME280;5712;48.858;9.206;2023-03-01T01:24:00;98933.78;;;-1.81;96.46
11314;BME280;5712;48.858;9.206;2023-03-01T01:26:27;98926.78;;;-1.70;95.79
11314;BME280;5712;48.858;9.206;2023-03-01T01:28:54;98917.22;;;-1.64;94.58
11314;BME280;5712;48.858;9.206;2023-03-01T01:31:22;98920.75;;;-1.72;94.32
11314;BME280;5712;48.858;9.206;2023-03-01T01:33:49;98916.50;;;-1.82;93.95
11314;BME280;5712;48.858;9.206;2023-03-01T01:36:17;98920.03;;;-1.89;94.25
11314;BME280;5712;48.858;9.206;2023-03-01T01:38:43;98920.00;;;-1.86;95.03
11314;BME280;5712;48.858;9.206;2023-03-01T01:41:11;98913.09;;;-1.84;94.40
11314;BME280;5712;48.858;9.206;2023-03-01T01:43:40;98908.88;;;-2.00;95.23
11314;BME280;5712;48.858;9.206;2023-03-01T01:46:15;98902.97;;;-2.16;95.46
11314;BME280;5712;48.858;9.206;2023-03-01T01:48:45;98905.59;;;-2.22;95.79
11314;BME280;5712;48.858;9.206;2023-03-01T01:51:14;98905.59;;;-2.22;96.21
11314;BME280;5712;48.858;9.206;2023-03-01T01:53:46;98903.69;;;-2.00;96.01
11314;BME280;5712;48.858;9.206;2023-03-01T01:56:15;98895.81;;;-1.85;95.80
11314;BME280;5712;48.858;9.206;2023-03-01T01:58:43;98893.19;;;-1.79;95.21
11314;BME280;5712;48.858;9.206;2023-03-01T02:01:12;98896.59;;;-1.76;95.23
11314;BME280;5712;48.858;9.206;2023-03-01T02:03:40;98883.63;;;-1.74;94.90
11314;BME280;5712;48.858;9.206;2023-03-01T02:06:13;98893.84;;;-1.58;94.51
11314;BME280;5712;48.858;9.206;2023-03-01T02:08:45;98890.28;;;-1.49;93.89
11314;BME280;5712;48.858;9.206;2023-03-01T02:11:13;98891.16;;;-1.50;93.26
11314;BME280;5712;48.858;9.206;2023-03-01T02:13:41;98871.16;;;-1.38;93.13
11314;BME280;5712;48.858;9.206;2023-03-01T02:16:09;98866.69;;;-1.22;91.65
11314;BME280;5712;48.858;9.206;2023-03-01T02:18:37;98865.91;;;-1.30;90.94
11314;BME280;5712;48.858;9.206;2023-03-01T02:21:19;98863.22;;;-1.23;90.95
11314;BME280;5712;48.858;9.206;2023-03-01T02:23:54;98851.84;;;-1.11;90.49
11314;BME280;5712;48.858;9.206;2023-03-01T02:26:27;98849.16;;;-1.04;89.31
11314;BME280;5712;48.858;9.206;2023-03-01T02:28:57;98843.94;;;-1.01;89.05
11314;BME280;5712;48.858;9.206;2023-03-01T02:31:24;98836.00;;;-0.90;89.01
11314;BME280;5712;48.858;9.206;2023-03-01T02:34:15;98832.66;;;-0.98;88.92
11314;BME280;5712;48.858;9.206;2023-03-01T02:36:46;98836.16;;;-0.99;89.82
11314;BME280;5712;48.858;9.206;2023-03-01T02:39:16;98836.91;;;-0.91;89.39
11314;BME280;5712;48.858;9.206;2023-03-01T02:41:46;98829.97;;;-0.91;89.34
11314;BME280;5712;48.858;9.206;2023-03-01T02:44:14;98827.41;;;-0.95;90.42
11314;BME280;5712;48.858;9.206;2023-03-01T02:46:46;98826.59;;;-0.99;90.61
11314;BME280;5712;48.858;9.206;2023-03-01T02:49:23;98828.41;;;-1.04;91.56
11314;BME280;5712;48.858;9.206;2023-03-01T02:52:07;98824.91;;;-1.01;92.80
11314;BME280;5712;48.858;9.206;2023-03-01T02:54:43;98832.66;;;-0.97;92.75
11314;BME280;5712;48.858;9.206;2023-03-01T02:57:12;98827.34;;;-0.89;93.15
11314;BME280;5712;48.858;9.206;2023-03-01T02:59:42;98835.94;;;-0.84;93.38
11314;BME280;5712;48.858;9.206;2023-03-01T03:02:19;98827.34;;;-0.89;92.91
11314;BME280;5712;48.858;9.206;2023-03-01T03:05:02;98829.84;;;-0.83;93.86
11314;BME280;5712;48.858;9.206;2023-03-01T03:07:28;98825.53;;;-0.81;94.14
11314;BME280;5712;48.858;9.206;2023-03-01T03:09:55;98820.28;;;-0.80;94.02
11314;BME280;5712;48.858;9.206;2023-03-01T03:12:21;98818.59;;;-0.81;94.09
11314;BME280;5712;48.858;9.206;2023-03-01T03:14:49;98817.69;;;-0.78;93.79
11314;BME280;5712;48.858;9.206;2023-03-01T03:17:15;98811.69;;;-0.82;94.16
11314;BME280;5712;48.858;9.206;2023-03-01T03:19:42;98813.47;;;-0.85;94.23
11314;BME280;5712;48.858;9.206;2023-03-01T03:22:10;98809.09;;;-0.83;94.38
11314;BME280;5712;48.858;9.206;2023-03-01T03:24:37;98800.34;;;-0.76;94.03
11314;BME280;5712;48.858;9.206;2023-03-01T03:27:04;98799.41;;;-0.69;93.74
11314;BME280;5712;48.858;9.206;2023-03-01T03:29:30;98808.03;;;-0.67;93.65
11314;BME280;5712;48.858;9.206;2023-03-01T03:31:58;98805.41;;;-0.67;93.19
11314;BME280;5712;48.858;9.206;2023-03-01T03:34:25;98801.03;;;-0.62;92.46
11314;BME280;5712;48.858;9.206;2023-03-01T03:36:53;98799.16;;;-0.54;91.74
11314;BME280;5712;48.858;9.206;2023-03-01T03:39:22;98799.97;;;-0.51;90.91
11314;BME280;5712;48.858;9.206;2023-03-01T03:41:48;98797.41;;;-0.52;91.32
11314;BME280;5712;48.858;9.206;2023-03-01T03:44:14;98799.94;;;-0.48;90.90
11314;BME280;5712;48.858;9.206;2023-03-01T03:46:41;98800.88;;;-0.53;90.55
11314;BME280;5712;48.858;9.206;2023-03-01T03:49:09;98800.88;;;-0.53;91.12
11314;BME280;5712;48.858;9.206;2023-03-01T03:51:35;98793.94;;;-0.51;91.42
11314;BME280;5712;48.858;9.206;2023-03-01T03:54:02;98788.59;;;-0.42;91.14
11314;BME280;5712;48.858;9.206;2023-03-01T03:56:28;98790.22;;;-0.35;90.24
11314;BME280;5712;48.858;9.206;2023-03-01T03:58:55;98778.94;;;-0.33;89.71
11314;BME280;5712;48.858;9.206;2023-03-01T04:01:21;98779.00;;;-0.36;91.00
11314;BME280;5712;48.858;9.206;2023-03-01T04:03:48;98778.13;;;-0.36;90.84
11314;BME280;5712;48.858;9.206;2023-03-01T04:06:20;98772.91;;;-0.36;90.19
11314;BME280;5712;48.858;9.206;2023-03-01T04:08:47;98772.84;;;-0.32;88.74
11314;BME280;5712;48.858;9.206;2023-03-01T04:11:16;98766.84;;;-0.35;88.78
11314;BME280;5712;48.858;9.206;2023-03-01T04:13:56;98766.75;;;-0.31;88.02
11314;BME280;5712;48.858;9.206;2023-03-01T04:16:23;98760.59;;;-0.24;87.93
11314;BME280;5712;48.858;9.206;2023-03-01T04:18:52;98760.56;;;-0.22;87.41
11314;BME280;5712;48.858;9.206;2023-03-01T04:21:26;98753.63;;;-0.20;87.42
11314;BME280;5712;48.858;9.206;2023-03-01T04:23:52;98759.72;;;-0.23;87.17
11314;BME280;5712;48.858;9.206;2023-03-01T04:26:19;98762.38;;;-0.28;88.47
11314;BME280;5712;48.858;9.206;2023-03-01T04:28:46;98768.50;;;-0.30;89.55
11314;BME280;5712;48.858;9.206;2023-03-01T04:31:16;98766.03;;;-0.37;90.51
11314;BME280;5712;48.858;9.206;2023-03-01T04:33:45;98767.72;;;-0.36;91.54
11314;BME280;5712;48.858;9.206;2023-03-01T04:36:13;98765.13;;;-0.35;90.80
11314;BME280;5712;48.858;9.206;2023-03-01T04:38:42;98769.44;;;-0.35;91.51
11314;BME280;5712;48.858;9.206;2023-03-01T04:41:13;98767.72;;;-0.36;91.46
11314;BME280;5712;48.858;9.206;2023-03-01T04:43:40;98774.66;;;-0.37;92.08
11314;BME280;5712;48.858;9.206;2023-03-01T04:46:09;98768.44;;;-0.27;91.61
11314;BME280;5712;48.858;9.206;2023-03-01T04:48:37;98771.13;;;-0.31;92.06
11314;BME280;5712;48.858;9.206;2023-03-01T04:51:05;98772.88;;;-0.33;91.99
11314;BME280;5712;48.858;9.206;2023-03-01T04:53:33;98780.69;;;-0.33;92.55
11314;BME280;5712;48.858;9.206;2023-03-01T04:56:03;98778.13;;;-0.36;92.81
11314;BME280;5712;48.858;9.206;2023-03-01T04:58:29;98768.53;;;-0.33;92.74
11314;BME280;5712;48.858;9.206;2023-03-01T05:00:56;98775.34;;;-0.28;92.02
11314;BME280;5712;48.858;9.206;2023-03-01T05:03:22;98773.59;;;-0.24;92.29
11314;BME280;5712;48.858;9.206;2023-03-01T05:05:51;98769.31;;;-0.26;90.94
11314;BME280;5712;48.858;9.206;2023-03-01T05:08:18;98769.13;;;-0.17;91.03
11314;BME280;5712;48.858;9.206;2023-03-01T05:10:48;98768.31;;;-0.18;89.72
11314;BME280;5712;48.858;9.206;2023-03-01T05:13:17;98763.91;;;-0.14;89.59
11314;BME280;5712;48.858;9.206;2023-03-01T05:15:47;98760.50;;;-0.18;89.53
11314;BME280;5712;48.858;9.206;2023-03-01T05:18:14;98761.34;;;-0.17;89.26
11314;BME280;5712;48.858;9.206;2023-03-01T05:20:41;98757.94;;;-0.19;89.43
11314;BME280;5712;48.858;9.206;2023-03-01T05:23:07;98763.94;;;-0.17;89.30
11314;BME280;5712;48.858;9.206;2023-03-01T05:25:34;98753.63;;;-0.20;89.25
11314;BME280;5712;48.858;9.206;2023-03-01T05:28:05;98756.25;;;-0.23;89.97
11314;BME280;5712;48.858;9.206;2023-03-01T05:30:34;98751.94;;;-0.24;89.89
11314;BME280;5712;48.858;9.206;2023-03-01T05:33:01;98750.97;;;-0.19;89.54
11314;BME280;5712;48.858;9.206;2023-03-01T05:35:28;98753.72;;;-0.26;88.97
11314;BME280;5712;48.858;9.206;2023-03-01T05:37:57;98758.91;;;-0.26;90.10
11314;BME280;5712;48.858;9.206;2023-03-01T05:40:24;98764.94;;;-0.26;89.67
11314;BME280;5712;48.858;9.206;2023-03-01T05:42:52;98761.50;;;-0.26;89.80
11314;BME280;5712;48.858;9.206;2023-03-01T05:45:20;98758.91;;;-0.26;89.76
11314;BME280;5712;48.858;9.206;2023-03-01T05:47:48;98757.19;;;-0.28;90.42
11314;BME280;5712;48.858;9.206;2023-03-01T05:50:17;98761.44;;;-0.22;90.27
11314;BME280;5712;48.858;9.206;2023-03-01T05:52:45;98771.72;;;-0.16;89.96
11314;BME280;5712;48.858;9.206;2023-03-01T05:55:12;98763.06;;;-0.17;89.21
11314;BME280;5712;48.858;9.206;2023-03-01T05:57:38;98756.94;;;-0.13;88.74
11314;BME280;5712;48.858;9.206;2023-03-01T06:00:07;98753.56;;;-0.17;88.88
11314;BME280;5712;48.858;9.206;2023-03-01T06:02:33;98751.78;;;-0.16;88.35
11314;BME280;5712;48.858;9.206;2023-03-01T06:05:01;98738.78;;;-0.16;88.87
11314;BME280;5712;48.858;9.206;2023-03-01T06:07:28;98734.44;;;-0.13;88.72
11314;BME280;5712;48.858;9.206;2023-03-01T06:09:55;98746.53;;;-0.11;88.11
11314;BME280;5712;48.858;9.206;2023-03-01T06:12:21;98752.59;;;-0.12;88.43
11314;BME280;5712;48.858;9.206;2023-03-01T06:14:48;98756.03;;;-0.12;89.44
11314;BME280;5712;48.858;9.206;2023-03-01T06:17:14;98758.66;;;-0.13;89.57
11314;BME280;5712;48.858;9.206;2023-03-01T06:19:41;98754.34;;;-0.14;89.45
11314;BME280;5712;48.858;9.206;2023-03-01T06:22:08;98746.53;;;-0.13;88.87
11314;BME280;5712;48.858;9.206;2023-03-01T06:24:35;98755.31;;;-0.18;89.63
11314;BME280;5712;48.858;9.206;2023-03-01T06:27:01;98746.53;;;-0.13;87.92
11314;BME280;5712;48.858;9.206;2023-03-01T06:29:28;98743.06;;;-0.12;87.63
11314;BME280;5712;48.858;9.206;2023-03-01T06:31:54;98740.53;;;-0.14;86.91
11314;BME280;5712;48.858;9.206;2023-03-01T06:34:21;98731.28;;;-0.30;87.66
11314;BME280;5712;48.858;9.206;2023-03-01T06:36:47;98747.03;;;-0.41;87.15
11314;BME280;5712;48.858;9.206;2023-03-01T06:39:15;98743.72;;;-0.50;88.16
11314;BME280;5712;48.858;9.206;2023-03-01T06:41:42;98745.63;;;-0.61;88.58
11314;BME280;5712;48.858;9.206;2023-03-01T06:44:09;98750.94;;;-0.70;88.81
11314;BME280;5712;48.858;9.206;2023-03-01T06:46:35;98754.44;;;-0.71;89.44
11314;BME280;5712;48.858;9.206;2023-03-01T06:49:02;98758.06;;;-0.83;89.70
11314;BME280;5712;48.858;9.206;2023-03-01T06:51:30;98765.00;;;-0.83;90.92
11314;BME280;5712;48.858;9.206;2023-03-01T06:53:59;98762.41;;;-0.83;91.28
11314;BME280;5712;48.858;9.206;2023-03-01T06:56:26;98770.13;;;-0.79;90.71
11314;BME280;5712;48.858;9.206;2023-03-01T06:58:53;98764.81;;;-0.71;91.52
11314;BME280;5712;48.858;9.206;2023-03-01T07:01:19;98764.81;;;-0.71;91.26
11314;BME280;5712;48.858;9.206;2023-03-01T07:03:46;98766.50;;;-0.67;90.54
11314;BME280;5712;48.858;9.206;2023-03-01T07:06:12;98752.69;;;-0.69;90.45
11314;BME280;5712;48.858;9.206;2023-03-01T07:08:39;98749.22;;;-0.68;90.67
11314;BME280;5712;48.858;9.206;2023-03-01T07:11:05;98747.41;;;-0.63;90.28
11314;BME280;5712;48.858;9.206;2023-03-01T07:13:33;98749.13;;;-0.62;90.12
11314;BME280;5712;48.858;9.206;2023-03-01T07:16:00;98750.72;;;-0.55;90.40
11314;BME280;5712;48.858;9.206;2023-03-01T07:18:26;98745.56;;;-0.58;90.14
11314;BME280;5712;48.858;9.206;2023-03-01T07:20:53;98741.97;;;-0.48;89.68
11314;BME280;5712;48.858;9.206;2023-03-01T07:23:19;98746.22;;;-0.44;89.64
11314;BME280;5712;48.858;9.206;2023-03-01T07:25:51;98743.56;;;-0.41;90.10
11314;BME280;5712;48.858;9.206;2023-03-01T07:28:17;98742.66;;;-0.39;90.63
11314;BME280;5712;48.858;9.206;2023-03-01T07:30:45;98740.75;;;-0.26;90.08
11314;BME280;5712;48.858;9.206;2023-03-01T07:33:12;98736.28;;;-0.22;89.44
11314;BME280;5712;48.858;9.206;2023-03-01T07:35:38;98734.44;;;-0.12;89.28
11314;BME280;5712;48.858;9.206;2023-03-01T07:38:05;98714.38;;;-0.06;87.71
11314;BME280;5712;48.858;9.206;2023-03-01T07:40:31;98712.56;;;-0.02;87.03
11314;BME280;5712;48.858;9.206;2023-03-01T07:42:59;98715.06;;;0.02;87.39
11314;BME280;5712;48.858;9.206;2023-03-01T07:45:27;98709.78;;;0.08;87.22
11314;BME280;5712;48.858;9.206;2023-03-01T07:47:55;98715.75;;;0.13;86.88
11314;BME280;5712;48.858;9.206;2023-03-01T07:50:22;98720.00;;;0.17;86.71
11314;BME280;5712;48.858;9.206;2023-03-01T07:52:50;98714.72;;;0.20;85.67
11314;BME280;5712;48.858;9.206;2023-03-01T07:55:16;98705.97;;;0.27;85.13
11314;BME280;5712;48.858;9.206;2023-03-01T07:57:43;98704.94;;;0.34;84.77
11314;BME280;5712;48.858;9.206;2023-03-01T08:00:11;98697.88;;;0.41;84.05
11314;BME280;5712;48.858;9.206;2023-03-01T08:02:38;98694.22;;;0.49;83.98
11314;BME280;5712;48.858;9.206;2023-03-01T08:05:08;98693.28;;;0.53;82.93
11314;BME280;5712;48.858;9.206;2023-03-01T08:07:35;98687.94;;;0.61;82.82
11314;BME280;5712;48.858;9.206;2023-03-01T08:10:02;98680.91;;;0.64;81.63
11314;BME280;5712;48.858;9.206;2023-03-01T08:12:28;98681.59;;;0.72;81.50
11314;BME280;5712;48.858;9.206;2023-03-01T08:14:55;98689.25;;;0.78;81.64
11314;BME280;5712;48.858;9.206;2023-03-01T08:17:22;98680.50;;;0.82;81.23
11314;BME280;5712;48.858;9.206;2023-03-01T08:19:49;98679.53;;;0.86;79.80
11314;BME280;5712;48.858;9.206;2023-03-01T08:22:16;98670.84;;;0.87;79.58
11314;BME280;5712;48.858;9.206;2023-03-01T08:24:43;98683.56;;;0.99;80.44
11314;BME280;5712;48.858;9.206;2023-03-01T08:27:09;98676.59;;;1.01;79.41
11314;BME280;5712;48.858;9.206;2023-03-01T08:29:37;98689.38;;;1.12;80.41
11314;BME280;5712;48.858;9.206;2023-03-01T08:32:04;98682.94;;;1.26;79.61
11314;BME280;5712;48.858;9.206;2023-03-01T08:34:30;98671.50;;;1.32;78.51
11314;BME280;5712;48.858;9.206;2023-03-01T08:36:57;98667.88;;;1.39;78.33
11314;BME280;5712;48.858;9.206;2023-03-01T08:39:25;98664.28;;;1.44;76.67
11314;BME280;5712;48.858;9.206;2023-03-01T08:41:52;98659.88;;;1.46;77.20
11314;BME280;5712;48.858;9.206;2023-03-01T08:44:18;98662.13;;;1.60;76.34
11314;BME280;5712;48.858;9.206;2023-03-01T08:46:46;98668.03;;;1.66;75.96
11314;BME280;5712;48.858;9.206;2023-03-01T08:49:17;98649.72;;;1.69;75.33
11314;BME280;5712;48.858;9.206;2023-03-01T08:51:44;98661.66;;;1.78;76.22
11314;BME280;5712;48.858;9.206;2023-03-01T08:54:13;98648.41;;;1.85;74.74
11314;BME280;5712;48.858;9.206;2023-03-01T08:56:42;98647.53;;;1.86;74.05
11314;BME280;5712;48.858;9.206;2023-03-01T08:59:09;98635.38;;;1.85;73.23
11314;BME280;5712;48.858;9.206;2023-03-01T09:01:35;98637.81;;;1.91;72.48
11314;BME280;5712;48.858;9.206;2023-03-01T09:04:02;98628.97;;;1.98;73.11
11314;BME280;5712;48.858;9.206;2023-03-01T09:06:30;98630.50;;;2.05;73.45
11314;BME280;5712;48.858;9.206;2023-03-01T09:08:57;98622.59;;;2.08;71.68
11314;BME280;5712;48.858;9.206;2023-03-01T09:11:23;98625.16;;;2.10;71.46
11314;BME280;5712;48.858;9.206;2023-03-01T09:13:51;98611.00;;;2.18;71.34
11314;BME280;5712;48.858;9.206;2023-03-01T09:16:19;98614.25;;;2.26;70.98
11314;BME280;5712;48.858;9.206;2023-03-01T09:18:49;98608.00;;;2.32;71.14
11314;BME280;5712;48.858;9.206;2023-03-01T09:21:16;98605.16;;;2.39;70.70
11314;BME280;5712;48.858;9.206;2023-03-01T09:23:44;98604.16;;;2.45;71.24
11314;BME280;5712;48.858;9.206;2023-03-01T09:26:13;98595.09;;;2.56;69.82
11314;BME280;5712;48.858;9.206;2023-03-01T09:28:41;98585.44;;;2.58;68.91
11314;BME280;5712;48.858;9.206;2023-03-01T09:31:11;98587.75;;;2.69;69.13
11314;BME280;5712;48.858;9.206;2023-03-01T09:33:39;98580.53;;;2.77;67.79
11314;BME280;5712;48.858;9.206;2023-03-01T09:36:10;98582.16;;;2.81;67.59
11314;BME280;5712;48.858;9.206;2023-03-01T09:38:37;98580.09;;;2.90;67.55
11314;BME280;5712;48.858;9.206;2023-03-01T09:41:09;98580.91;;;2.92;67.64
11314;BME280;5712;48.858;9.206;2023-03-01T09:43:43;98577.09;;;3.02;67.63
11314;BME280;5712;48.858;9.206;2023-03-01T09:46:14;98569.53;;;3.19;66.81
11314;BME280;5712;48.858;9.206;2023-03-01T09:48:43;98562.53;;;3.21;65.85
11314;BME280;5712;48.858;9.206;2023-03-01T09:51:15;98574.69;;;3.22;65.60
11314;BME280;5712;48.858;9.206;2023-03-01T09:53:43;98571.06;;;3.26;65.83
11314;BME280;5712;48.858;9.206;2023-03-01T09:56:14;98570.66;;;3.38;65.76
11314;BME280;5712;48.858;9.206;2023-03-01T09:58:48;98562.44;;;3.49;65.35
11314;BME280;5712;48.858;9.206;2023-03-01T10:01:28;98551.94;;;3.50;64.50
11314;BME280;5712;48.858;9.206;2023-03-01T10:04:04;98554.28;;;3.58;65.08
11314;BME280;5712;48.858;9.206;2023-03-01T10:06:37;98547.84;;;3.68;64.12
11314;BME280;5712;48.858;9.206;2023-03-01T10:09:07;98547.63;;;3.74;64.46
11314;BME280;5712;48.858;9.206;2023-03-01T10:11:37;98539.50;;;3.81;63.45
11314;BME280;5712;48.858;9.206;2023-03-01T10:14:09;98528.84;;;3.87;64.15
11314;BME280;5712;48.858;9.206;2023-03-01T10:16:46;98525.31;;;3.88;63.53
11314;BME280;5712;48.858;9.206;2023-03-01T10:19:17;98525.41;;;4.08;63.83
11314;BME280;5712;48.858;9.206;2023-03-01T10:21:47;98519.91;;;4.16;63.17
11314;BME280;5712;48.858;9.206;2023-03-01T10:24:17;98500.41;;;4.24;60.99
11314;BME280;5712;48.858;9.206;2023-03-01T10:26:54;98509.75;;;4.30;62.34
11314;BME280;5712;48.858;9.206;2023-03-01T10:29:24;98497.06;;;4.42;62.03
11314;BME280;5712;48.858;9.206;2023-03-01T10:31:54;98499.31;;;4.51;61.44
11314;BME280;5712;48.858;9.206;2023-03-01T10:34:26;98500.34;;;4.69;62.01
11314;BME280;5712;48.858;9.206;2023-03-01T10:36:57;98474.00;;;4.73;60.09
11314;BME280;5712;48.858;9.206;2023-03-01T10:39:25;98481.84;;;4.73;60.54
11314;BME280;5712;48.858;9.206;2023-03-01T10:41:55;98480.38;;;4.88;61.37
11314;BME280;5712;48.858;9.206;2023-03-01T10:44:37;98465.00;;;5.20;60.37
11314;BME280;5712;48.858;9.206;2023-03-01T10:47:13;98469.84;;;5.49;59.58
11314;BME280;5712;48.858;9.206;2023-03-01T10:49:52;98464.19;;;5.58;58.41
11314;BME280;5712;48.858;9.206;2023-03-01T10:52:20;98462.84;;;5.68;58.57
11314;BME280;5712;48.858;9.206;2023-03-01T10:54:53;98452.09;;;5.74;57.58
11314;BME280;5712;48.858;9.206;2023-03-01T10:57:31;98454.59;;;5.77;56.65
11314;BME280;5712;48.858;9.206;2023-03-01T11:00:15;98451.88;;;5.79;57.42
11314;BME280;5712;48.858;9.206;2023-03-01T11:02:47;98445.50;;;5.86;56.84
11314;BME280;5712;48.858;9.206;2023-03-01T11:05:18;98438.19;;;5.92;57.14
11314;BME280;5712;48.858;9.206;2023-03-01T11:07:50;98428.19;;;6.00;56.01
11314;BME280;5712;48.858;9.206;2023-03-01T11:10:18;98415.84;;;6.02;56.65
11314;BME280;5712;48.858;9.206;2023-03-01T11:12:45;98415.78;;;6.04;56.20
11314;BME280;5712;48.858;9.206;2023-03-01T11:15:21;98408.97;;;6.00;55.94
11314;BME280;5712;48.858;9.206;2023-03-01T11:17:50;98414.47;;;6.12;56.61
11314;BME280;5712;48.858;9.206;2023-03-01T11:20:24;98397.88;;;6.30;56.09
11314;BME280;5712;48.858;9.206;2023-03-01T11:22:53;98401.53;;;6.45;55.02
11314;BME280;5712;48.858;9.206;2023-03-01T11:25:24;98402.31;;;6.47;55.87
11314;BME280;5712;48.858;9.206;2023-03-01T11:27:51;98388.03;;;6.52;54.97
11314;BME280;5712;48.858;9.206;2023-03-01T11:30:22;98396.38;;;6.60;55.14
11314;BME280;5712;48.858;9.206;2023-03-01T11:33:01;98385.75;;;6.63;54.68
11314;BME280;5712;48.858;9.206;2023-03-01T11:35:29;98385.28;;;6.72;54.28
11314;BME280;5712;48.858;9.206;2023-03-01T11:38:04;98371.00;;;6.78;53.90
11314;BME280;5712;48.858;9.206;2023-03-01T11:40:40;98368.38;;;6.78;54.17
11314;BME280;5712;48.858;9.206;2023-03-01T11:43:13;98354.75;;;6.70;54.09
11314;BME280;5712;48.858;9.206;2023-03-01T11:45:49;98368.38;;;6.78;54.50
11314;BME280;5712;48.858;9.206;2023-03-01T11:48:46;98358.06;;;6.90;53.91
11314;BME280;5712;48.858;9.206;2023-03-01T11:51:23;98357.94;;;6.93;54.42
11314;BME280;5712;48.858;9.206;2023-03-01T11:53:59;98347.19;;;6.98;54.01
11314;BME280;5712;48.858;9.206;2023-03-01T11:56:31;98350.66;;;6.98;54.02
11314;BME280;5712;48.858;9.206;2023-03-01T11:59:13;98335.03;;;6.95;52.99
11314;BME280;5712;48.858;9.206;2023-03-01T12:01:57;98329.16;;;6.90;53.47
11314;BME280;5712;48.858;9.206;2023-03-01T12:04:47;98321.59;;;6.84;52.53
11314;BME280;5712;48.858;9.206;2023-03-01T12:07:25;98320.22;;;6.77;52.91
11314;BME280;5712;48.858;9.206;2023-03-01T12:10:19;98317.97;;;6.70;53.21
11314;BME280;5712;48.858;9.206;2023-03-01T12:12:57;98320.22;;;6.77;53.36
11314;BME280;5712;48.858;9.206;2023-03-01T12:15:38;98297.19;;;6.82;53.02
11314;BME280;5712;48.858;9.206;2023-03-01T12:18:30;98300.28;;;6.90;53.72
11314;BME280;5712;48.858;9.206;2023-03-01T12:21:14;98295.81;;;6.92;52.70
11314;BME280;5712;48.858;9.206;2023-03-01T12:23:56;98296.41;;;6.97;53.07
11314;BME280;5712;48.858;9.206;2023-03-01T12:26:31;98288.66;;;7.11;53.22
11314;BME280;5712;48.858;9.206;2023-03-01T12:29:22;98271.34;;;7.07;52.42
11314;BME280;5712;48.858;9.206;2023-03-01T12:35:04;98268.38;;;7.13;52.35
11314;BME280;5712;48.858;9.206;2023-03-01T12:37:45;98271.44;;;7.21;53.04
11314;BME280;5712;48.858;9.206;2023-03-01T12:40:31;98265.09;;;7.25;52.74
11314;BME280;5712;48.858;9.206;2023-03-01T12:43:13;98252.91;;;7.24;52.22
11314;BME280;5712;48.858;9.206;2023-03-01T12:45:48;98261.38;;;7.29;51.99
11314;BME280;5712;48.858;9.206;2023-03-01T12:48:26;98257.28;;;7.23;51.73
11314;BME280;5712;48.858;9.206;2023-03-01T12:50:59;98248.66;;;7.37;52.52
11314;BME280;5712;48.858;9.206;2023-03-01T12:53:31;98229.16;;;7.41;51.13
11314;BME280;5712;48.858;9.206;2023-03-01T12:56:01;98226.78;;;7.36;51.51
11314;BME280;5712;48.858;9.206;2023-03-01T12:58:32;98227.28;;;7.43;52.39
11314;BME280;5712;48.858;9.206;2023-03-01T13:01:08;98220.75;;;7.50;51.45
11314;BME280;5712;48.858;9.206;2023-03-01T13:03:52;98217.88;;;7.54;51.83
11314;BME280;5712;48.858;9.206;2023-03-01T13:06:29;98208.88;;;7.58;51.15
11314;BME280;5712;48.858;9.206;2023-03-01T13:09:08;98208.81;;;7.60;51.47
11314;BME280;5712;48.858;9.206;2023-03-01T13:11:41;98211.59;;;7.57;51.34
11314;BME280;5712;48.858;9.206;2023-03-01T13:14:36;98208.63;;;7.63;50.90
11314;BME280;5712;48.858;9.206;2023-03-01T13:17:07;98204.03;;;7.66;51.69
11314;BME280;5712;48.858;9.206;2023-03-01T13:19:57;98202.94;;;7.70;50.63
11314;BME280;5712;48.858;9.206;2023-03-01T13:22:26;98224.06;;;7.69;51.67
11314;BME280;5712;48.858;9.206;2023-03-01T13:25:01;98202.34;;;7.65;51.56
11314;BME280;5712;48.858;9.206;2023-03-01T13:27:28;98206.59;;;7.68;51.46
11314;BME280;5712;48.858;9.206;2023-03-01T13:29:57;98192.34;;;7.56;51.04
11314;BME280;5712;48.858;9.206;2023-03-01T13:32:29;98215.69;;;7.62;51.89
11314;BME280;5712;48.858;9.206;2023-03-01T13:35:00;98216.59;;;7.77;52.18